sensor_id;sensor_type;location;lat;lon;timestamp;P1;durP1;ratioP1;P2;durP2;ratioP2
72649;SDS011;61467;50.674;4.618;2022-10-31T00:01:23;13.25;;;6.38;;
72649;SDS011;61467;50.674;4.618;2022-10-31T00:03:51;14.32;;;6.25;;
72649;SDS011;61467;50.674;4.618;2022-10-31T00:06:18;12.57;;;5.75;;
72649;SDS011;61467;50.674;4.618;2022-10-31T00:08:45;15.27;;;6.93;;
72649;SDS011;61467;50.674;4.618;2022-10-31T00:11:12;13.40;;;6.33;;
72649;SDS011;61467;50.674;4.618;2022-10-31T00:13:39;16.20;;;7.07;;
72649;SDS011;61467;50.674;4.618;2022-10-31T00:16:13;12.00;;;5.95;;
72649;SDS011;61467;50.674;4.618;2022-10-31T00:18:41;16.10;;;6.80;;
72649;SDS011;61467;50.674;4.618;2022-10-31T00:21:07;11.57;;;5.97;;
72649;SDS011;61467;50.674;4.618;2022-10-31T00:23:34;13.60;;;7.13;;
72649;SDS011;61467;50.674;4.618;2022-10-31T00:26:01;15.15;;;6.28;;
72649;SDS011;61467;50.674;4.618;2022-10-31T00:28:29;15.77;;;6.03;;
72649;SDS011;61467;50.674;4.618;2022-10-31T00:30:58;14.50;;;6.50;;
72649;SDS011;61467;50.674;4.618;2022-10-31T00:33:26;12.65;;;6.35;;
72649;SDS011;61467;50.674;4.618;2022-10-31T00:35:53;14.27;;;6.30;;
72649;SDS011;61467;50.674;4.618;2022-10-31T00:38:20;12.82;;;6.55;;
72649;SDS011;61467;50.674;4.618;2022-10-31T00:40:47;13.00;;;6.80;;
72649;SDS011;61467;50.674;4.618;2022-10-31T00:43:13;15.38;;;6.43;;
72649;SDS011;61467;50.674;4.618;2022-10-31T00:45:40;15.60;;;8.13;;
72649;SDS011;61467;50.674;4.618;2022-10-31T00:48:08;14.60;;;6.10;;
72649;SDS011;61467;50.674;4.618;2022-10-31T00:50:36;15.30;;;7.38;;
72649;SDS011;61467;50.674;4.618;2022-10-31T00:53:03;14.13;;;6.90;;
72649;SDS011;61467;50.674;4.618;2022-10-31T00:55:30;18.45;;;6.88;;
72649;SDS011;61467;50.674;4.618;2022-10-31T00:57:57;18.80;;;6.85;;
72649;SDS011;61467;50.674;4.618;2022-10-31T01:00:23;15.13;;;7.17;;
72649;SDS011;61467;50.674;4.618;2022-10-31T01:02:50;15.45;;;7.35;;
72649;SDS011;61467;50.674;4.618;2022-10-31T01:05:17;16.13;;;7.05;;
72649;SDS011;61467;50.674;4.618;2022-10-31T01:07:46;15.18;;;7.65;;
72649;SDS011;61467;50.674;4.618;2022-10-31T01:10:12;15.57;;;7.97;;
72649;SDS011;61467;50.674;4.618;2022-10-31T01:12:40;19.93;;;7.33;;
72649;SDS011;61467;50.674;4.618;2022-10-31T01:15:08;15.52;;;7.55;;
72649;SDS011;61467;50.674;4.618;2022-10-31T01:17:36;19.98;;;8.05;;
72649;SDS011;61467;50.674;4.618;2022-10-31T01:20:03;17.30;;;8.18;;
72649;SDS011;61467;50.674;4.618;2022-10-31T01:22:30;16.58;;;7.78;;
72649;SDS011;61467;50.674;4.618;2022-10-31T01:24:58;17.13;;;7.80;;
72649;SDS011;61467;50.674;4.618;2022-10-31T01:27:25;17.35;;;8.00;;
72649;SDS011;61467;50.674;4.618;2022-10-31T01:29:52;19.63;;;8.98;;
72649;SDS011;61467;50.674;4.618;2022-10-31T01:32:19;22.83;;;8.68;;
72649;SDS011;61467;50.674;4.618;2022-10-31T01:34:45;19.73;;;9.23;;
72649;SDS011;61467;50.674;4.618;2022-10-31T01:37:12;25.13;;;10.50;;
72649;SDS011;61467;50.674;4.618;2022-10-31T01:39:39;19.27;;;8.45;;
72649;SDS011;61467;50.674;4.618;2022-10-31T01:42:09;19.42;;;8.65;;
72649;SDS011;61467;50.674;4.618;2022-10-31T01:44:50;21.63;;;9.10;;
72649;SDS011;61467;50.674;4.618;2022-10-31T01:47:39;18.85;;;8.40;;
72649;SDS011;61467;50.674;4.618;2022-10-31T01:50:19;17.33;;;7.63;;
72649;SDS011;61467;50.674;4.618;2022-10-31T01:52:52;17.83;;;7.90;;
72649;SDS011;61467;50.674;4.618;2022-10-31T01:55:20;16.65;;;8.48;;
72649;SDS011;61467;50.674;4.618;2022-10-31T01:57:54;18.73;;;8.38;;
72649;SDS011;61467;50.674;4.618;2022-10-31T02:00:23;16.73;;;8.00;;
72649;SDS011;61467;50.674;4.618;2022-10-31T02:02:50;17.20;;;7.73;;
72649;SDS011;61467;50.674;4.618;2022-10-31T02:05:21;15.68;;;7.53;;
72649;SDS011;61467;50.674;4.618;2022-10-31T02:07:52;15.65;;;8.27;;
72649;SDS011;61467;50.674;4.618;2022-10-31T02:10:23;16.13;;;8.30;;
72649;SDS011;61467;50.674;4.618;2022-10-31T02:12:53;17.95;;;8.25;;
72649;SDS011;61467;50.674;4.618;2022-10-31T02:15:23;15.30;;;7.07;;
72649;SDS011;61467;50.674;4.618;2022-10-31T02:17:50;15.45;;;7.40;;
72649;SDS011;61467;50.674;4.618;2022-10-31T02:20:18;18.17;;;7.55;;
72649;SDS011;61467;50.674;4.618;2022-10-31T02:23:05;16.75;;;7.90;;
72649;SDS011;61467;50.674;4.618;2022-10-31T02:26:07;18.13;;;7.65;;
72649;SDS011;61467;50.674;4.618;2022-10-31T02:29:01;17.30;;;8.07;;
72649;SDS011;61467;50.674;4.618;2022-10-31T02:31:51;15.93;;;6.93;;
72649;SDS011;61467;50.674;4.618;2022-10-31T02:34:26;15.20;;;7.22;;
72649;SDS011;61467;50.674;4.618;2022-10-31T02:37:01;17.38;;;6.93;;
72649;SDS011;61467;50.674;4.618;2022-10-31T02:39:38;18.20;;;7.10;;
72649;SDS011;61467;50.674;4.618;2022-10-31T02:42:13;13.83;;;7.03;;
72649;SDS011;61467;50.674;4.618;2022-10-31T02:44:44;17.42;;;7.50;;
72649;SDS011;61467;50.674;4.618;2022-10-31T02:47:16;21.08;;;7.60;;
72649;SDS011;61467;50.674;4.618;2022-10-31T02:49:45;13.57;;;7.03;;
72649;SDS011;61467;50.674;4.618;2022-10-31T02:52:17;17.50;;;6.88;;
72649;SDS011;61467;50.674;4.618;2022-10-31T02:54:45;13.63;;;6.83;;
72649;SDS011;61467;50.674;4.618;2022-10-31T02:57:13;15.10;;;7.45;;
72649;SDS011;61467;50.674;4.618;2022-10-31T02:59:43;13.73;;;7.20;;
72649;SDS011;61467;50.674;4.618;2022-10-31T03:02:24;16.15;;;7.50;;
72649;SDS011;61467;50.674;4.618;2022-10-31T03:05:22;14.57;;;7.07;;
72649;SDS011;61467;50.674;4.618;2022-10-31T03:07:56;14.33;;;7.40;;
72649;SDS011;61467;50.674;4.618;2022-10-31T03:10:27;16.33;;;7.43;;
72649;SDS011;61467;50.674;4.618;2022-10-31T03:13:03;15.73;;;7.32;;
72649;SDS011;61467;50.674;4.618;2022-10-31T03:15:36;14.77;;;7.38;;
72649;SDS011;61467;50.674;4.618;2022-10-31T03:18:08;15.98;;;7.18;;
72649;SDS011;61467;50.674;4.618;2022-10-31T03:20:39;16.97;;;7.20;;
72649;SDS011;61467;50.674;4.618;2022-10-31T03:23:11;13.98;;;7.78;;
72649;SDS011;61467;50.674;4.618;2022-10-31T03:25:39;17.10;;;7.30;;
72649;SDS011;61467;50.674;4.618;2022-10-31T03:28:08;15.90;;;7.28;;
72649;SDS011;61467;50.674;4.618;2022-10-31T03:30:36;16.27;;;6.82;;
72649;SDS011;61467;50.674;4.618;2022-10-31T03:33:09;17.23;;;7.73;;
72649;SDS011;61467;50.674;4.618;2022-10-31T03:35:39;14.35;;;7.00;;
72649;SDS011;61467;50.674;4.618;2022-10-31T03:38:10;15.30;;;7.22;;
72649;SDS011;61467;50.674;4.618;2022-10-31T03:40:38;18.25;;;7.22;;
72649;SDS011;61467;50.674;4.618;2022-10-31T03:43:08;14.68;;;7.70;;
72649;SDS011;61467;50.674;4.618;2022-10-31T03:45:39;14.17;;;7.33;;
72649;SDS011;61467;50.674;4.618;2022-10-31T03:48:10;13.73;;;7.82;;
72649;SDS011;61467;50.674;4.618;2022-10-31T03:50:40;16.80;;;7.57;;
72649;SDS011;61467;50.674;4.618;2022-10-31T03:53:16;15.02;;;7.20;;
72649;SDS011;61467;50.674;4.618;2022-10-31T03:55:50;15.80;;;6.95;;
72649;SDS011;61467;50.674;4.618;2022-10-31T03:58:21;14.47;;;7.17;;
72649;SDS011;61467;50.674;4.618;2022-10-31T04:00:52;15.38;;;7.47;;
72649;SDS011;61467;50.674;4.618;2022-10-31T04:03:24;13.73;;;7.10;;
72649;SDS011;61467;50.674;4.618;2022-10-31T04:05:53;14.23;;;7.40;;
72649;SDS011;61467;50.674;4.618;2022-10-31T04:08:23;14.35;;;7.57;;
72649;SDS011;61467;50.674;4.618;2022-10-31T04:10:52;14.60;;;7.00;;
72649;SDS011;61467;50.674;4.618;2022-10-31T04:13:23;15.57;;;7.35;;
72649;SDS011;61467;50.674;4.618;2022-10-31T04:15:52;15.18;;;7.15;;
72649;SDS011;61467;50.674;4.618;2022-10-31T04:18:22;13.77;;;6.70;;
72649;SDS011;61467;50.674;4.618;2022-10-31T04:20:58;18.48;;;7.57;;
72649;SDS011;61467;50.674;4.618;2022-10-31T04:23:26;12.80;;;7.03;;
72649;SDS011;61467;50.674;4.618;2022-10-31T04:25:53;13.18;;;7.40;;
72649;SDS011;61467;50.674;4.618;2022-10-31T04:28:20;14.80;;;7.45;;
72649;SDS011;61467;50.674;4.618;2022-10-31T04:30:46;15.68;;;7.40;;
72649;SDS011;61467;50.674;4.618;2022-10-31T04:33:13;13.70;;;6.88;;
72649;SDS011;61467;50.674;4.618;2022-10-31T04:35:41;14.20;;;6.50;;
72649;SDS011;61467;50.674;4.618;2022-10-31T04:38:08;11.90;;;6.47;;
72649;SDS011;61467;50.674;4.618;2022-10-31T04:40:34;15.18;;;6.95;;
72649;SDS011;61467;50.674;4.618;2022-10-31T04:43:01;13.25;;;6.63;;
72649;SDS011;61467;50.674;4.618;2022-10-31T04:45:28;16.60;;;7.00;;
72649;SDS011;61467;50.674;4.618;2022-10-31T04:47:54;15.27;;;6.03;;
72649;SDS011;61467;50.674;4.618;2022-10-31T04:50:22;11.55;;;6.50;;
72649;SDS011;61467;50.674;4.618;2022-10-31T04:52:50;13.38;;;6.13;;
72649;SDS011;61467;50.674;4.618;2022-10-31T04:55:17;16.15;;;7.25;;
72649;SDS011;61467;50.674;4.618;2022-10-31T04:57:44;15.25;;;6.60;;
72649;SDS011;61467;50.674;4.618;2022-10-31T05:00:13;13.57;;;6.37;;
72649;SDS011;61467;50.674;4.618;2022-10-31T05:02:44;14.13;;;6.55;;
72649;SDS011;61467;50.674;4.618;2022-10-31T05:05:11;14.82;;;7.05;;
72649;SDS011;61467;50.674;4.618;2022-10-31T05:07:39;13.40;;;6.28;;
72649;SDS011;61467;50.674;4.618;2022-10-31T05:10:08;13.15;;;6.60;;
72649;SDS011;61467;50.674;4.618;2022-10-31T05:12:36;13.43;;;5.83;;
72649;SDS011;61467;50.674;4.618;2022-10-31T05:15:03;14.57;;;6.50;;
72649;SDS011;61467;50.674;4.618;2022-10-31T05:17:31;16.17;;;7.07;;
72649;SDS011;61467;50.674;4.618;2022-10-31T05:19:58;12.95;;;6.70;;
72649;SDS011;61467;50.674;4.618;2022-10-31T05:22:24;12.48;;;5.95;;
72649;SDS011;61467;50.674;4.618;2022-10-31T05:24:51;14.40;;;6.23;;
72649;SDS011;61467;50.674;4.618;2022-10-31T05:27:19;14.57;;;6.78;;
72649;SDS011;61467;50.674;4.618;2022-10-31T05:29:46;11.85;;;6.18;;
72649;SDS011;61467;50.674;4.618;2022-10-31T05:32:12;12.23;;;5.72;;
72649;SDS011;61467;50.674;4.618;2022-10-31T05:34:39;11.32;;;6.03;;
72649;SDS011;61467;50.674;4.618;2022-10-31T05:37:06;11.50;;;6.00;;
72649;SDS011;61467;50.674;4.618;2022-10-31T05:39:32;16.58;;;6.53;;
72649;SDS011;61467;50.674;4.618;2022-10-31T05:41:59;14.35;;;6.50;;
72649;SDS011;61467;50.674;4.618;2022-10-31T05:44:27;11.57;;;6.03;;
72649;SDS011;61467;50.674;4.618;2022-10-31T05:46:54;13.02;;;6.10;;
72649;SDS011;61467;50.674;4.618;2022-10-31T05:49:20;13.03;;;6.37;;
72649;SDS011;61467;50.674;4.618;2022-10-31T05:51:47;16.80;;;7.50;;
72649;SDS011;61467;50.674;4.618;2022-10-31T05:54:14;13.40;;;7.30;;
72649;SDS011;61467;50.674;4.618;2022-10-31T05:56:41;14.05;;;6.75;;
72649;SDS011;61467;50.674;4.618;2022-10-31T05:59:07;13.05;;;6.70;;
72649;SDS011;61467;50.674;4.618;2022-10-31T06:01:35;12.57;;;6.67;;
72649;SDS011;61467;50.674;4.618;2022-10-31T06:04:02;13.23;;;6.63;;
72649;SDS011;61467;50.674;4.618;2022-10-31T06:06:28;13.88;;;7.10;;
72649;SDS011;61467;50.674;4.618;2022-10-31T06:08:55;14.93;;;7.00;;
72649;SDS011;61467;50.674;4.618;2022-10-31T06:11:22;13.80;;;7.10;;
72649;SDS011;61467;50.674;4.618;2022-10-31T06:13:49;13.07;;;6.30;;
72649;SDS011;61467;50.674;4.618;2022-10-31T06:16:16;13.40;;;6.38;;
72649;SDS011;61467;50.674;4.618;2022-10-31T06:18:44;14.27;;;6.30;;
72649;SDS011;61467;50.674;4.618;2022-10-31T06:21:11;13.98;;;6.43;;
72649;SDS011;61467;50.674;4.618;2022-10-31T06:23:38;12.50;;;6.60;;
72649;SDS011;61467;50.674;4.618;2022-10-31T06:26:04;17.70;;;6.43;;
72649;SDS011;61467;50.674;4.618;2022-10-31T06:28:31;14.73;;;6.18;;
72649;SDS011;61467;50.674;4.618;2022-10-31T06:30:58;14.52;;;6.85;;
72649;SDS011;61467;50.674;4.618;2022-10-31T06:33:24;13.57;;;7.18;;
72649;SDS011;61467;50.674;4.618;2022-10-31T06:35:52;15.20;;;6.57;;
72649;SDS011;61467;50.674;4.618;2022-10-31T06:38:19;15.37;;;6.33;;
72649;SDS011;61467;50.674;4.618;2022-10-31T06:40:46;13.73;;;6.47;;
72649;SDS011;61467;50.674;4.618;2022-10-31T06:43:13;11.95;;;6.50;;
72649;SDS011;61467;50.674;4.618;2022-10-31T06:45:39;14.07;;;6.38;;
72649;SDS011;61467;50.674;4.618;2022-10-31T06:48:06;13.05;;;6.43;;
72649;SDS011;61467;50.674;4.618;2022-10-31T06:50:33;13.70;;;6.47;;
72649;SDS011;61467;50.674;4.618;2022-10-31T06:53:01;12.10;;;5.97;;
72649;SDS011;61467;50.674;4.618;2022-10-31T06:55:28;15.32;;;6.30;;
72649;SDS011;61467;50.674;4.618;2022-10-31T06:57:56;15.02;;;6.22;;
72649;SDS011;61467;50.674;4.618;2022-10-31T07:00:24;16.42;;;6.30;;
72649;SDS011;61467;50.674;4.618;2022-10-31T07:02:53;15.27;;;6.80;;
72649;SDS011;61467;50.674;4.618;2022-10-31T07:05:20;15.02;;;6.40;;
72649;SDS011;61467;50.674;4.618;2022-10-31T07:07:47;15.35;;;6.28;;
72649;SDS011;61467;50.674;4.618;2022-10-31T07:10:15;14.48;;;5.85;;
72649;SDS011;61467;50.674;4.618;2022-10-31T07:12:41;13.93;;;6.00;;
72649;SDS011;61467;50.674;4.618;2022-10-31T07:15:08;13.67;;;5.70;;
72649;SDS011;61467;50.674;4.618;2022-10-31T07:17:35;14.43;;;6.05;;
72649;SDS011;61467;50.674;4.618;2022-10-31T07:20:02;11.63;;;5.80;;
72649;SDS011;61467;50.674;4.618;2022-10-31T07:22:33;13.43;;;6.03;;
72649;SDS011;61467;50.674;4.618;2022-10-31T07:24:59;13.68;;;5.95;;
72649;SDS011;61467;50.674;4.618;2022-10-31T07:27:27;13.77;;;5.70;;
72649;SDS011;61467;50.674;4.618;2022-10-31T07:29:54;13.00;;;5.93;;
72649;SDS011;61467;50.674;4.618;2022-10-31T07:32:21;14.05;;;6.50;;
72649;SDS011;61467;50.674;4.618;2022-10-31T07:34:48;11.90;;;5.43;;
72649;SDS011;61467;50.674;4.618;2022-10-31T07:37:14;11.65;;;5.05;;
72649;SDS011;61467;50.674;4.618;2022-10-31T07:39:41;11.23;;;5.40;;
72649;SDS011;61467;50.674;4.618;2022-10-31T07:42:08;12.45;;;5.72;;
72649;SDS011;61467;50.674;4.618;2022-10-31T07:44:36;15.13;;;6.60;;
72649;SDS011;61467;50.674;4.618;2022-10-31T07:47:02;15.65;;;6.18;;
72649;SDS011;61467;50.674;4.618;2022-10-31T07:49:29;22.15;;;5.88;;
72649;SDS011;61467;50.674;4.618;2022-10-31T07:51:56;15.33;;;6.60;;
72649;SDS011;61467;50.674;4.618;2022-10-31T07:54:22;13.85;;;5.70;;
72649;SDS011;61467;50.674;4.618;2022-10-31T07:56:49;13.30;;;5.78;;
72649;SDS011;61467;50.674;4.618;2022-10-31T07:59:16;12.43;;;5.63;;
72649;SDS011;61467;50.674;4.618;2022-10-31T08:01:44;12.32;;;6.20;;
72649;SDS011;61467;50.674;4.618;2022-10-31T08:04:10;14.83;;;5.87;;
72649;SDS011;61467;50.674;4.618;2022-10-31T08:06:37;14.15;;;6.20;;
72649;SDS011;61467;50.674;4.618;2022-10-31T08:09:04;14.98;;;6.55;;
72649;SDS011;61467;50.674;4.618;2022-10-31T08:11:30;13.50;;;5.82;;
72649;SDS011;61467;50.674;4.618;2022-10-31T08:13:57;12.48;;;5.53;;
72649;SDS011;61467;50.674;4.618;2022-10-31T08:16:24;11.30;;;5.53;;
72649;SDS011;61467;50.674;4.618;2022-10-31T08:18:52;12.60;;;5.88;;
72649;SDS011;61467;50.674;4.618;2022-10-31T08:21:20;14.38;;;5.28;;
72649;SDS011;61467;50.674;4.618;2022-10-31T08:23:47;14.30;;;5.78;;
72649;SDS011;61467;50.674;4.618;2022-10-31T08:26:14;13.85;;;5.60;;
72649;SDS011;61467;50.674;4.618;2022-10-31T08:28:40;13.33;;;6.27;;
72649;SDS011;61467;50.674;4.618;2022-10-31T08:31:07;12.90;;;6.10;;
72649;SDS011;61467;50.674;4.618;2022-10-31T08:33:35;13.57;;;6.10;;
72649;SDS011;61467;50.674;4.618;2022-10-31T08:36:03;13.15;;;5.88;;
72649;SDS011;61467;50.674;4.618;2022-10-31T08:38:30;14.98;;;6.10;;
72649;SDS011;61467;50.674;4.618;2022-10-31T08:40:56;12.47;;;5.83;;
72649;SDS011;61467;50.674;4.618;2022-10-31T08:43:23;14.02;;;7.53;;
72649;SDS011;61467;50.674;4.618;2022-10-31T08:45:50;15.90;;;6.47;;
72649;SDS011;61467;50.674;4.618;2022-10-31T08:48:19;14.15;;;6.32;;
72649;SDS011;61467;50.674;4.618;2022-10-31T08:50:46;12.55;;;5.68;;
72649;SDS011;61467;50.674;4.618;2022-10-31T08:53:15;10.80;;;4.90;;
72649;SDS011;61467;50.674;4.618;2022-10-31T08:55:44;15.10;;;5.50;;
72649;SDS011;61467;50.674;4.618;2022-10-31T08:58:12;13.00;;;5.80;;
72649;SDS011;61467;50.674;4.618;2022-10-31T09:00:41;14.88;;;6.32;;
72649;SDS011;61467;50.674;4.618;2022-10-31T09:03:10;13.65;;;5.18;;
72649;SDS011;61467;50.674;4.618;2022-10-31T09:05:38;13.87;;;5.60;;
72649;SDS011;61467;50.674;4.618;2022-10-31T09:08:05;14.82;;;5.88;;
72649;SDS011;61467;50.674;4.618;2022-10-31T09:10:35;11.30;;;5.90;;
72649;SDS011;61467;50.674;4.618;2022-10-31T09:13:03;13.10;;;5.90;;
72649;SDS011;61467;50.674;4.618;2022-10-31T09:15:31;13.85;;;5.75;;
72649;SDS011;61467;50.674;4.618;2022-10-31T09:17:59;11.30;;;5.63;;
72649;SDS011;61467;50.674;4.618;2022-10-31T09:20:25;16.00;;;5.82;;
72649;SDS011;61467;50.674;4.618;2022-10-31T09:22:55;14.27;;;6.55;;
72649;SDS011;61467;50.674;4.618;2022-10-31T09:25:23;16.50;;;6.25;;
72649;SDS011;61467;50.674;4.618;2022-10-31T09:27:54;14.30;;;6.63;;
72649;SDS011;61467;50.674;4.618;2022-10-31T09:30:22;13.10;;;6.30;;
72649;SDS011;61467;50.674;4.618;2022-10-31T09:32:54;15.73;;;6.05;;
72649;SDS011;61467;50.674;4.618;2022-10-31T09:35:21;15.40;;;6.38;;
72649;SDS011;61467;50.674;4.618;2022-10-31T09:37:53;12.55;;;6.07;;
72649;SDS011;61467;50.674;4.618;2022-10-31T09:40:20;16.17;;;6.35;;
72649;SDS011;61467;50.674;4.618;2022-10-31T09:42:49;13.83;;;6.43;;
72649;SDS011;61467;50.674;4.618;2022-10-31T09:45:26;13.43;;;6.70;;
72649;SDS011;61467;50.674;4.618;2022-10-31T09:48:01;15.43;;;7.03;;
72649;SDS011;61467;50.674;4.618;2022-10-31T09:50:40;15.38;;;7.47;;
72649;SDS011;61467;50.674;4.618;2022-10-31T09:53:15;13.73;;;6.45;;
72649;SDS011;61467;50.674;4.618;2022-10-31T09:55:48;12.70;;;6.30;;
72649;SDS011;61467;50.674;4.618;2022-10-31T09:58:19;16.08;;;6.13;;
72649;SDS011;61467;50.674;4.618;2022-10-31T10:00:49;11.93;;;5.93;;
72649;SDS011;61467;50.674;4.618;2022-10-31T10:03:19;15.43;;;6.30;;
72649;SDS011;61467;50.674;4.618;2022-10-31T10:05:54;14.82;;;6.30;;
72649;SDS011;61467;50.674;4.618;2022-10-31T10:08:32;15.80;;;5.70;;
72649;SDS011;61467;50.674;4.618;2022-10-31T10:11:02;13.00;;;5.75;;
72649;SDS011;61467;50.674;4.618;2022-10-31T10:13:44;11.60;;;5.70;;
72649;SDS011;61467;50.674;4.618;2022-10-31T10:16:32;14.40;;;5.80;;
72649;SDS011;61467;50.674;4.618;2022-10-31T10:19:20;14.30;;;6.25;;
72649;SDS011;61467;50.674;4.618;2022-10-31T10:22:08;11.80;;;5.37;;
72649;SDS011;61467;50.674;4.618;2022-10-31T10:24:45;14.02;;;5.80;;
72649;SDS011;61467;50.674;4.618;2022-10-31T10:27:23;15.52;;;6.32;;
72649;SDS011;61467;50.674;4.618;2022-10-31T10:30:00;13.98;;;6.15;;
72649;SDS011;61467;50.674;4.618;2022-10-31T10:32:35;13.35;;;6.50;;
72649;SDS011;61467;50.674;4.618;2022-10-31T10:35:11;12.17;;;5.90;;
72649;SDS011;61467;50.674;4.618;2022-10-31T10:37:46;13.27;;;5.53;;
72649;SDS011;61467;50.674;4.618;2022-10-31T10:40:16;14.93;;;5.65;;
72649;SDS011;61467;50.674;4.618;2022-10-31T10:42:45;16.80;;;5.63;;
72649;SDS011;61467;50.674;4.618;2022-10-31T10:45:42;16.73;;;6.20;;
72649;SDS011;61467;50.674;4.618;2022-10-31T10:48:32;14.53;;;6.47;;
72649;SDS011;61467;50.674;4.618;2022-10-31T10:51:05;15.65;;;6.22;;
72649;SDS011;61467;50.674;4.618;2022-10-31T10:53:42;16.20;;;6.50;;
72649;SDS011;61467;50.674;4.618;2022-10-31T10:56:30;15.38;;;6.55;;
72649;SDS011;61467;50.674;4.618;2022-10-31T10:59:04;15.80;;;6.65;;
72649;SDS011;61467;50.674;4.618;2022-10-31T11:01:32;17.30;;;6.77;;
72649;SDS011;61467;50.674;4.618;2022-10-31T11:03:58;17.95;;;6.50;;
72649;SDS011;61467;50.674;4.618;2022-10-31T11:06:26;15.93;;;6.45;;
72649;SDS011;61467;50.674;4.618;2022-10-31T11:08:53;14.55;;;5.35;;
72649;SDS011;61467;50.674;4.618;2022-10-31T11:11:24;15.40;;;6.05;;
72649;SDS011;61467;50.674;4.618;2022-10-31T11:13:55;15.67;;;5.83;;
72649;SDS011;61467;50.674;4.618;2022-10-31T11:16:27;16.25;;;5.70;;
72649;SDS011;61467;50.674;4.618;2022-10-31T11:19:06;14.55;;;5.22;;
72649;SDS011;61467;50.674;4.618;2022-10-31T11:21:35;11.65;;;4.88;;
72649;SDS011;61467;50.674;4.618;2022-10-31T11:24:03;18.02;;;5.43;;
72649;SDS011;61467;50.674;4.618;2022-10-31T11:26:30;14.33;;;5.43;;
72649;SDS011;61467;50.674;4.618;2022-10-31T11:29:00;13.45;;;5.22;;
72649;SDS011;61467;50.674;4.618;2022-10-31T11:31:28;14.23;;;5.20;;
72649;SDS011;61467;50.674;4.618;2022-10-31T11:33:57;13.20;;;5.68;;
72649;SDS011;61467;50.674;4.618;2022-10-31T11:36:29;13.02;;;5.88;;
72649;SDS011;61467;50.674;4.618;2022-10-31T11:38:57;13.47;;;5.10;;
72649;SDS011;61467;50.674;4.618;2022-10-31T11:41:27;13.48;;;4.80;;
72649;SDS011;61467;50.674;4.618;2022-10-31T11:43:56;10.25;;;4.47;;
72649;SDS011;61467;50.674;4.618;2022-10-31T11:46:26;11.93;;;5.00;;
72649;SDS011;61467;50.674;4.618;2022-10-31T11:48:59;12.38;;;5.30;;
72649;SDS011;61467;50.674;4.618;2022-10-31T11:51:28;10.37;;;4.90;;
72649;SDS011;61467;50.674;4.618;2022-10-31T11:53:57;13.93;;;5.68;;
72649;SDS011;61467;50.674;4.618;2022-10-31T11:56:27;16.90;;;5.32;;
72649;SDS011;61467;50.674;4.618;2022-10-31T11:59:04;13.18;;;5.35;;
72649;SDS011;61467;50.674;4.618;2022-10-31T12:01:32;11.70;;;4.93;;
72649;SDS011;61467;50.674;4.618;2022-10-31T12:04:01;14.63;;;4.60;;
72649;SDS011;61467;50.674;4.618;2022-10-31T12:06:34;14.82;;;5.30;;
72649;SDS011;61467;50.674;4.618;2022-10-31T12:09:02;13.52;;;5.22;;
72649;SDS011;61467;50.674;4.618;2022-10-31T12:11:43;14.77;;;5.50;;
72649;SDS011;61467;50.674;4.618;2022-10-31T12:14:21;19.30;;;5.47;;
72649;SDS011;61467;50.674;4.618;2022-10-31T12:16:57;10.73;;;4.70;;
72649;SDS011;61467;50.674;4.618;2022-10-31T12:19:33;13.13;;;5.15;;
72649;SDS011;61467;50.674;4.618;2022-10-31T12:22:08;13.02;;;4.97;;
72649;SDS011;61467;50.674;4.618;2022-10-31T12:24:44;14.18;;;4.78;;
72649;SDS011;61467;50.674;4.618;2022-10-31T12:27:20;11.32;;;4.88;;
72649;SDS011;61467;50.674;4.618;2022-10-31T12:29:57;13.30;;;5.40;;
72649;SDS011;61467;50.674;4.618;2022-10-31T12:32:35;13.82;;;4.60;;
72649;SDS011;61467;50.674;4.618;2022-10-31T12:35:13;14.23;;;5.00;;
72649;SDS011;61467;50.674;4.618;2022-10-31T12:38:00;12.82;;;4.55;;
72649;SDS011;61467;50.674;4.618;2022-10-31T12:40:48;13.05;;;4.45;;
72649;SDS011;61467;50.674;4.618;2022-10-31T12:43:29;9.10;;;3.97;;
72649;SDS011;61467;50.674;4.618;2022-10-31T12:46:02;13.20;;;4.18;;
72649;SDS011;61467;50.674;4.618;2022-10-31T12:48:49;11.73;;;4.18;;
72649;SDS011;61467;50.674;4.618;2022-10-31T12:51:26;12.68;;;4.38;;
72649;SDS011;61467;50.674;4.618;2022-10-31T12:54:06;10.10;;;3.97;;
72649;SDS011;61467;50.674;4.618;2022-10-31T12:56:56;12.37;;;4.40;;
72649;SDS011;61467;50.674;4.618;2022-10-31T12:59:29;8.60;;;3.30;;
72649;SDS011;61467;50.674;4.618;2022-10-31T13:02:00;12.70;;;4.00;;
72649;SDS011;61467;50.674;4.618;2022-10-31T13:04:35;12.05;;;3.80;;
72649;SDS011;61467;50.674;4.618;2022-10-31T13:07:08;11.52;;;4.00;;
72649;SDS011;61467;50.674;4.618;2022-10-31T13:09:41;8.93;;;3.40;;
72649;SDS011;61467;50.674;4.618;2022-10-31T13:12:14;12.43;;;3.85;;
72649;SDS011;61467;50.674;4.618;2022-10-31T13:14:44;12.43;;;3.55;;
72649;SDS011;61467;50.674;4.618;2022-10-31T13:17:16;12.10;;;3.80;;
72649;SDS011;61467;50.674;4.618;2022-10-31T13:19:50;12.07;;;3.83;;
72649;SDS011;61467;50.674;4.618;2022-10-31T13:22:20;8.93;;;3.57;;
72649;SDS011;61467;50.674;4.618;2022-10-31T13:24:53;12.68;;;4.57;;
72649;SDS011;61467;50.674;4.618;2022-10-31T13:27:23;15.93;;;4.00;;
72649;SDS011;61467;50.674;4.618;2022-10-31T13:29:55;11.40;;;3.75;;
72649;SDS011;61467;50.674;4.618;2022-10-31T13:32:28;8.52;;;3.83;;
72649;SDS011;61467;50.674;4.618;2022-10-31T13:35:04;13.73;;;4.00;;
72649;SDS011;61467;50.674;4.618;2022-10-31T13:37:40;11.55;;;3.90;;
72649;SDS011;61467;50.674;4.618;2022-10-31T13:40:14;10.02;;;3.83;;
72649;SDS011;61467;50.674;4.618;2022-10-31T13:42:53;12.82;;;3.80;;
72649;SDS011;61467;50.674;4.618;2022-10-31T13:45:25;10.57;;;3.50;;
72649;SDS011;61467;50.674;4.618;2022-10-31T13:47:55;11.93;;;4.00;;
72649;SDS011;61467;50.674;4.618;2022-10-31T13:50:25;15.70;;;4.13;;
72649;SDS011;61467;50.674;4.618;2022-10-31T13:53:12;14.35;;;4.00;;
72649;SDS011;61467;50.674;4.618;2022-10-31T13:55:47;12.20;;;4.00;;
72649;SDS011;61467;50.674;4.618;2022-10-31T13:58:22;11.68;;;4.13;;
72649;SDS011;61467;50.674;4.618;2022-10-31T14:01:01;10.77;;;3.70;;
72649;SDS011;61467;50.674;4.618;2022-10-31T14:03:38;15.10;;;4.07;;
72649;SDS011;61467;50.674;4.618;2022-10-31T14:06:07;13.15;;;4.30;;
72649;SDS011;61467;50.674;4.618;2022-10-31T14:08:36;10.65;;;4.32;;
72649;SDS011;61467;50.674;4.618;2022-10-31T14:11:08;13.60;;;3.83;;
72649;SDS011;61467;50.674;4.618;2022-10-31T14:13:48;10.87;;;4.00;;
72649;SDS011;61467;50.674;4.618;2022-10-31T14:16:17;11.52;;;3.55;;
72649;SDS011;61467;50.674;4.618;2022-10-31T14:18:48;14.52;;;3.50;;
72649;SDS011;61467;50.674;4.618;2022-10-31T14:21:25;10.73;;;3.40;;
72649;SDS011;61467;50.674;4.618;2022-10-31T14:23:54;10.75;;;3.60;;
72649;SDS011;61467;50.674;4.618;2022-10-31T14:26:33;13.53;;;3.93;;
72649;SDS011;61467;50.674;4.618;2022-10-31T14:29:03;9.95;;;3.60;;
72649;SDS011;61467;50.674;4.618;2022-10-31T14:31:53;12.10;;;3.45;;
72649;SDS011;61467;50.674;4.618;2022-10-31T14:34:22;9.63;;;3.60;;
72649;SDS011;61467;50.674;4.618;2022-10-31T14:36:56;15.02;;;3.72;;
72649;SDS011;61467;50.674;4.618;2022-10-31T14:39:33;13.37;;;4.37;;
72649;SDS011;61467;50.674;4.618;2022-10-31T14:42:12;9.80;;;3.63;;
72649;SDS011;61467;50.674;4.618;2022-10-31T14:47:43;11.75;;;3.70;;
72649;SDS011;61467;50.674;4.618;2022-10-31T14:50:21;12.63;;;3.45;;
72649;SDS011;61467;50.674;4.618;2022-10-31T14:52:53;8.87;;;3.23;;
72649;SDS011;61467;50.674;4.618;2022-10-31T14:55:23;11.57;;;4.05;;
72649;SDS011;61467;50.674;4.618;2022-10-31T14:57:53;10.05;;;3.50;;
72649;SDS011;61467;50.674;4.618;2022-10-31T15:00:23;12.48;;;3.20;;